• Join FlightAware (Why Join?)
  • Login
  • US Flag 
04:52AM EDT


 

Airport Tracker/Info


-or-


 

Live Flight TrackerFlight Track Log ✈ SWA3694 ✈ 05-Dec-2013 ✈ KMDW - KMHT

Flight Track Log - Related Links

Times and Time Zones

All times are in EST time to prevent confusion due to time zone crossing. See the SWA3694 flight status page for this flight to view local times or setup timezone preferences in your user account.

Time Position Orientation Groundspeed Altitude Reporting Facility
EST Latitude Longitude Course Direction KTS MPH feet Rate Location/Type
03:47PM 41.8167 -87.7667 75° East 167 192 2,200  Level Chicago TRACON
03:48PM 41.8333 -87.6833 75° East 244 281 3,100 480 Climbing Chicago TRACON
03:49PM 41.8094 -87.5967 110° East 239 275 3,300 1,260 Climbing Chicago Center
03:50PM 41.7981 -87.4967 99° East 263 303 6,000 2,700 Climbing Chicago Center
03:51PM 41.7897 -87.3844 96° East 290 334 9,000 2,700 Climbing Chicago Center
03:52PM 41.7800 -87.2594 96° East 321 369 11,600 2,460 Climbing Chicago Center
03:53PM 41.7678 -87.1214 97° East 357 411 14,200 2,220 Climbing Chicago Center
03:54PM 41.7631 -86.9353 92° East 422 486 16,300 1,980 Climbing Chicago Center
03:55PM 41.7661 -86.7689 89° East 444 511 18,400 1,980 Climbing Chicago Center
03:56PM 41.7656 -86.5919 90° East 471 542 20,500 1,200 Climbing Chicago Center
03:57PM 41.7678 -86.4133 89° East 479 551 21,000 360 Climbing Chicago Center
03:58PM 41.7806 -86.2386 84° East 474 545 21,300 1,080 Climbing Chicago Center
03:59PM 41.8233 -86.0647 72° East 491 565 23,300 1,920 Climbing Chicago Center
04:00PM 41.9003 -85.8592 63° Northeast 513 590 25,300 1,620 Climbing Chicago Center
04:01PM 41.9300 -85.6725 78° East 519 597 26,700 1,200 Climbing Chicago Center
04:02PM 41.9314 -85.4744 89° East 523 602 27,900 1,200 Climbing Chicago Center
04:03PM 41.9350 -85.2700 89° East 537 618 29,200 1,200 Climbing Chicago Center
04:05PM 41.9392 -85.0633 88° East 550 633 30,500 1,200 Climbing Chicago Center
04:06PM 41.9628 -84.8544 81° East 562 647 31,800 1,260 Climbing Chicago Center
04:07PM 41.9906 -84.6239 81° East 567 652 33,200 1,260 Climbing Chicago Center
04:08PM 42.0128 -84.4317 81° East 561 646 34,500 1,020 Climbing Chicago Center
04:08PM 42.0300 -84.2747 82° East 559 643 35,000 240 Climbing Cleveland Center
04:09PM 42.0531 -84.0839 81° East 559 643 35,000  Level Cleveland Center
04:10PM 42.0797 -83.8403 82° East 555 639 35,000  Level Cleveland Center
04:11PM 42.1025 -83.6361 81° East 556 640 35,000  Level Cleveland Center
04:12PM 42.1239 -83.4308 82° East 561 646 35,000  Level Cleveland Center
04:13PM 42.1500 -83.1908 82° East 561 646 35,000  Level Cleveland Center
04:15PM 42.1719 -82.9853 82° East 561 646 35,000  Level Cleveland Center
04:16PM 42.1925 -82.7786 82° East 561 646 35,000  Level Cleveland Center
04:17PM 42.2136 -82.5722 82° East 559 643 35,000  Level Cleveland Center
04:18PM 42.2333 -82.3664 83° East 556 640 35,000  Level Cleveland Center
04:19PM 42.2556 -82.1375 82° East 556 640 35,000  Level Cleveland Center
04:20PM 42.2744 -81.9281 83° East 556 640 35,000  Level Cleveland Center
04:21PM 42.2947 -81.7183 82° East 555 639 35,000  Level Cleveland Center
04:22PM 42.3139 -81.5100 83° East 554 638 35,000  Level Cleveland Center
04:23PM 42.3350 -81.2672 83° East 553 636 35,000  Level Cleveland Center
04:24PM 42.3533 -81.0592 83° East 552 635 35,000  Level Cleveland Center
04:25PM 42.3711 -80.8506 83° East 552 635 35,000  Level Cleveland Center
04:26PM 42.3889 -80.6436 83° East 549 632 35,000  Level Cleveland Center
04:27PM 42.4064 -80.4347 83° East 553 636 35,000  Level Cleveland Center
04:28PM 42.4231 -80.2250 84° East 555 639 35,000  Level Cleveland Center
04:29PM 42.4394 -80.0169 84° East 552 635 35,000  Level Cleveland Center
04:30PM 42.4567 -79.7925 84° East 556 640 35,000  Level Cleveland Center
04:31PM 42.4706 -79.5900 85° East 549 632 35,000  Level Cleveland Center
04:32PM 42.4856 -79.3836 84° East 552 635 35,000  Level Cleveland Center
04:33PM 42.5025 -79.1361 85° East 552 635 35,000  Level Cleveland Center
04:34PM 42.5164 -78.9308 85° East 550 633 35,000  Level Cleveland Center
04:35PM 42.5294 -78.7256 85° East 548 631 35,000  Level Cleveland Center
04:36PM 42.5428 -78.5222 85° East 545 627 35,000  Level Cleveland Center
04:37PM 42.5569 -78.3219 84° East 537 618 35,000  Level Cleveland Center
04:38PM 42.5692 -78.1211 85° East 538 619 35,000  Level Cleveland Center
04:39PM 42.5828 -77.8822 85° East 534 615 35,000  Level Cleveland Center
04:40PM 42.5919 -77.7039 86° East 532 612 35,000  Level Cleveland Center
04:41PM 42.6067 -77.4656 85° East 531 611 35,000  Level Cleveland Center
04:42PM 42.6175 -77.2603 86° East 531 611 35,000  Level Cleveland Center
04:43PM 42.6258 -77.1017 86° East 533 613 35,000  Level Boston Center
04:44PM 42.6361 -76.9019 86° East 532 612 35,000  Level Boston Center
04:45PM 42.6458 -76.7042 86° East 529 609 35,000 -240 Level Boston Center
04:46PM 42.6558 -76.5058 86° East 529 609 34,600 -660 Descending Boston Center
04:47PM 42.6642 -76.3075 87° East 528 608 33,700 -1,020 Descending Boston Center
04:48PM 42.6747 -76.0761 86° East 530 610 32,500 -1,140 Descending Boston Center
04:49PM 42.6822 -75.8758 87° East 535 616 31,500 -1,020 Descending Boston Center
04:50PM 42.6894 -75.6817 87° East 525 604 30,500 -1,020 Descending Boston Center
04:52PM 42.6975 -75.4914 87° East 514 592 29,500 -780 Descending Boston Center
04:53PM 42.7033 -75.3047 88° East 504 580 29,000 -300 Descending Boston Center
04:54PM 42.7103 -75.1156 87° East 506 582 29,000  Level Boston Center
04:55PM 42.7189 -74.8903 87° East 503 579 29,000  Level Boston Center
04:56PM 42.7253 -74.7042 87° East 498 573 29,000  Level Boston Center
04:57PM 42.7303 -74.5172 88° East 499 574 29,000 -240 Level Boston Center
04:58PM 42.7353 -74.3297 88° East 501 577 28,600 -720 Descending Boston Center
04:59PM 42.7400 -74.1408 88° East 502 578 27,600 -1,020 Descending Boston Center
05:00PM 42.7444 -73.9517 88° East 507 583 26,600 -1,020 Descending Boston Center
05:01PM 42.7483 -73.7639 88° East 501 577 25,600 -1,020 Descending Boston Center
05:02PM 42.7561 -73.5786 87° East 494 568 24,600 -1,140 Descending Boston Center
05:03PM 42.7644 -73.3614 87° East 481 554 23,400 -1,140 Descending Boston Center
05:04PM 42.7706 -73.1872 87° East 463 533 22,300 -1,200 Descending Boston Center
05:05PM 42.7756 -73.0169 88° East 447 514 21,000 -660 Descending Boston Center
05:06PM 42.7803 -72.8647 88° East 446 513 21,000 -1,320 Level Boston Center
05:07PM 42.7844 -72.6742 88° East 450 518 18,400 -2,460 Descending Boston Center
05:08PM 42.7894 -72.5014 88° East 455 524 16,000 -2,280 Descending Boston Center
05:09PM 42.7947 -72.3333 87° East 446 513 13,700 -2,340 Descending Boston Center
05:10PM 42.8058 -72.1669 85° East 415 478 11,200 -1,860 Descending Boston Center
05:11PM 42.8097 -72.0125 88° East 377 434 10,000 -1,200 Descending Boston Center
05:12PM 42.8056 -71.8928 93° East 326 375 8,800 -1,440 Descending Boston Center
05:13PM 42.7878 -71.7800 102° East 309 356 7,100 -1,680 Descending Boston Center
05:14PM 42.7708 -71.6603 101° East 303 349 5,400 -1,680 Descending Boston Center
05:15PM 42.7572 -71.5525 100° East 294 338 3,800 -1,380 Descending Boston Center
05:16PM 42.7456 -71.4517 99° East 274 315 2,600 -900 Descending Boston Center
05:17PM 42.7683 -71.3617 71° East 242 278 2,000 -300 Descending Boston Center
05:18PM 42.8197 -71.3656 357° North 190 219 2,000 -240 Level Boston Center
05:19PM 42.8622 -71.3917 336° Northwest 168 193 1,600 -600 Descending Boston Center
05:20PM 42.9008 -71.4136 337° Northwest 151 174 800 -660 Descending Boston Center
05:21PM 42.9372 -71.4350 337° Northwest 140 161 300 -540 Descending Boston Center
05:23PM 42.9328 -71.4358 316° Northwest  Level Estimated